sensor_id;sensor_type;location;lat;lon;timestamp;pressure;altitude;pressure_sealevel;temperature;humidity
18504;BME280;9381;54.244;10.074;2023-10-08T00:04:09;101518.50;;;14.40;100.00
18504;BME280;9381;54.244;10.074;2023-10-08T00:09:18;101530.31;;;14.27;100.00
18504;BME280;9381;54.244;10.074;2023-10-08T00:14:20;101531.16;;;14.28;100.00
18504;BME280;9381;54.244;10.074;2023-10-08T00:19:21;101539.94;;;14.30;100.00
18504;BME280;9381;54.244;10.074;2023-10-08T00:24:21;101548.31;;;14.28;100.00
18504;BME280;9381;54.244;10.074;2023-10-08T00:29:27;101586.84;;;14.25;100.00
18504;BME280;9381;54.244;10.074;2023-10-08T00:34:27;101557.97;;;14.24;100.00
18504;BME280;9381;54.244;10.074;2023-10-08T00:39:27;101589.41;;;14.20;100.00
18504;BME280;9381;54.244;10.074;2023-10-08T00:44:37;101573.09;;;14.20;100.00
18504;BME280;9381;54.244;10.074;2023-10-08T00:49:47;101572.66;;;14.17;100.00
18504;BME280;9381;54.244;10.074;2023-10-08T00:54:54;101577.91;;;14.18;100.00
18504;BME280;9381;54.244;10.074;2023-10-08T00:59:54;101605.78;;;14.07;100.00
18504;BME280;9381;54.244;10.074;2023-10-08T01:04:56;101580.84;;;14.10;100.00
18504;BME280;9381;54.244;10.074;2023-10-08T01:09:56;101583.19;;;14.07;99.79
18504;BME280;9381;54.244;10.074;2023-10-08T01:15:01;101603.66;;;14.09;98.92
18504;BME280;9381;54.244;10.074;2023-10-08T01:20:18;101606.22;;;14.04;99.46
18504;BME280;9381;54.244;10.074;2023-10-08T01:25:41;101597.84;;;14.06;98.70
18504;BME280;9381;54.244;10.074;2023-10-08T01:30:42;101586.13;;;14.05;98.58
18504;BME280;9381;54.244;10.074;2023-10-08T01:35:46;101592.03;;;13.96;98.40
18504;BME280;9381;54.244;10.074;2023-10-08T01:40:49;101622.19;;;13.94;99.21
18504;BME280;9381;54.244;10.074;2023-10-08T01:45:52;101602.41;;;13.74;99.00
18504;BME280;9381;54.244;10.074;2023-10-08T01:50:56;101598.06;;;13.60;99.42
18504;BME280;9381;54.244;10.074;2023-10-08T01:56:01;101594.31;;;13.55;99.67
18504;BME280;9381;54.244;10.074;2023-10-08T02:01:04;101602.69;;;13.53;100.00
18504;BME280;9381;54.244;10.074;2023-10-08T02:06:11;101608.72;;;13.55;100.00
18504;BME280;9381;54.244;10.074;2023-10-08T02:11:12;101618.16;;;13.59;100.00
18504;BME280;9381;54.244;10.074;2023-10-08T02:16:18;101611.66;;;13.60;100.00
18504;BME280;9381;54.244;10.074;2023-10-08T02:21:19;101634.47;;;13.59;100.00
18504;BME280;9381;54.244;10.074;2023-10-08T02:26:19;101651.59;;;13.53;99.89
18504;BME280;9381;54.244;10.074;2023-10-08T02:31:20;101662.06;;;13.56;100.00
18504;BME280;9381;54.244;10.074;2023-10-08T02:36:20;101651.63;;;13.47;100.00
18504;BME280;9381;54.244;10.074;2023-10-08T02:41:20;101660.22;;;13.44;100.00
18504;BME280;9381;54.244;10.074;2023-10-08T02:46:24;101649.56;;;13.42;100.00
18504;BME280;9381;54.244;10.074;2023-10-08T02:51:26;101669.84;;;13.40;100.00
18504;BME280;9381;54.244;10.074;2023-10-08T02:56:27;101685.31;;;13.39;100.00
18504;BME280;9381;54.244;10.074;2023-10-08T03:01:32;101687.19;;;13.32;99.32
18504;BME280;9381;54.244;10.074;2023-10-08T03:06:34;101682.19;;;13.29;99.44
18504;BME280;9381;54.244;10.074;2023-10-08T03:11:34;101685.53;;;13.18;98.74
18504;BME280;9381;54.244;10.074;2023-10-08T03:16:37;101684.28;;;13.14;98.96
18504;BME280;9381;54.244;10.074;2023-10-08T03:21:37;101712.28;;;13.08;98.98
18504;BME280;9381;54.244;10.074;2023-10-08T03:26:38;101706.03;;;13.01;97.70
18504;BME280;9381;54.244;10.074;2023-10-08T03:31:41;101712.25;;;12.82;97.46
18504;BME280;9381;54.244;10.074;2023-10-08T03:36:59;101726.44;;;12.65;98.16
18504;BME280;9381;54.244;10.074;2023-10-08T03:42:05;101751.47;;;12.60;97.81
18504;BME280;9381;54.244;10.074;2023-10-08T03:47:12;101760.03;;;12.57;97.83
18504;BME280;9381;54.244;10.074;2023-10-08T03:52:12;101771.88;;;12.43;98.04
18504;BME280;9381;54.244;10.074;2023-10-08T03:57:13;101761.84;;;12.37;98.19
18504;BME280;9381;54.244;10.074;2023-10-08T04:02:18;101776.03;;;12.33;98.69
18504;BME280;9381;54.244;10.074;2023-10-08T04:07:40;101763.88;;;12.29;98.36
18504;BME280;9381;54.244;10.074;2023-10-08T04:13:00;101766.78;;;12.27;98.50
18504;BME280;9381;54.244;10.074;2023-10-08T04:18:00;101767.22;;;12.24;99.16
18504;BME280;9381;54.244;10.074;2023-10-08T04:23:10;101788.13;;;12.30;99.42
18504;BME280;9381;54.244;10.074;2023-10-08T04:28:21;101779.34;;;12.28;99.47
18504;BME280;9381;54.244;10.074;2023-10-08T04:33:22;101782.06;;;12.28;99.59
18504;BME280;9381;54.244;10.074;2023-10-08T04:38:24;101780.19;;;12.35;100.00
18504;BME280;9381;54.244;10.074;2023-10-08T04:43:28;101801.09;;;12.41;99.69
18504;BME280;9381;54.244;10.074;2023-10-08T04:48:30;101811.31;;;12.39;99.78
18504;BME280;9381;54.244;10.074;2023-10-08T04:53:33;101814.41;;;12.36;99.89
18504;BME280;9381;54.244;10.074;2023-10-08T04:58:41;101833.66;;;12.41;100.00
18504;BME280;9381;54.244;10.074;2023-10-08T05:03:41;101821.72;;;12.36;100.00
18504;BME280;9381;54.244;10.074;2023-10-08T05:08:54;101835.03;;;12.24;99.44
18504;BME280;9381;54.244;10.074;2023-10-08T05:14:15;101850.66;;;12.22;100.00
18504;BME280;9381;54.244;10.074;2023-10-08T05:19:30;101859.28;;;12.32;100.00
18504;BME280;9381;54.244;10.074;2023-10-08T05:25:09;101863.06;;;12.38;100.00
18504;BME280;9381;54.244;10.074;2023-10-08T05:30:19;101867.88;;;12.42;100.00
18504;BME280;9381;54.244;10.074;2023-10-08T05:35:42;101872.91;;;12.45;99.83
18504;BME280;9381;54.244;10.074;2023-10-08T05:40:43;101872.06;;;12.45;99.69
18504;BME280;9381;54.244;10.074;2023-10-08T05:45:58;101880.03;;;12.46;99.02
18504;BME280;9381;54.244;10.074;2023-10-08T05:51:18;101875.41;;;12.47;99.14
18504;BME280;9381;54.244;10.074;2023-10-08T05:56:34;101880.38;;;12.37;99.08
18504;BME280;9381;54.244;10.074;2023-10-08T06:01:54;101880.72;;;12.27;98.33
18504;BME280;9381;54.244;10.074;2023-10-08T06:07:06;101899.31;;;12.24;98.89
18504;BME280;9381;54.244;10.074;2023-10-08T06:12:12;101899.72;;;12.27;98.96
18504;BME280;9381;54.244;10.074;2023-10-08T06:17:19;101907.91;;;12.34;98.51
18504;BME280;9381;54.244;10.074;2023-10-08T06:22:58;101912.09;;;12.36;98.22
18504;BME280;9381;54.244;10.074;2023-10-08T06:28:03;101917.75;;;12.41;98.68
18504;BME280;9381;54.244;10.074;2023-10-08T06:33:04;101932.22;;;12.48;98.32
18504;BME280;9381;54.244;10.074;2023-10-08T06:38:04;101939.78;;;12.59;97.71
18504;BME280;9381;54.244;10.074;2023-10-08T06:43:07;101963.03;;;12.68;98.15
18504;BME280;9381;54.244;10.074;2023-10-08T06:48:24;101969.06;;;12.70;98.36
18504;BME280;9381;54.244;10.074;2023-10-08T06:53:25;101964.09;;;12.74;98.21
18504;BME280;9381;54.244;10.074;2023-10-08T06:58:25;101983.75;;;12.82;98.68
18504;BME280;9381;54.244;10.074;2023-10-08T07:03:26;101991.34;;;12.93;98.52
18504;BME280;9381;54.244;10.074;2023-10-08T07:08:28;101990.56;;;12.99;98.89
18504;BME280;9381;54.244;10.074;2023-10-08T07:13:31;101998.09;;;13.04;98.49
18504;BME280;9381;54.244;10.074;2023-10-08T07:18:32;101996.06;;;13.12;99.23
18504;BME280;9381;54.244;10.074;2023-10-08T07:23:34;102009.06;;;13.23;98.92
18504;BME280;9381;54.244;10.074;2023-10-08T07:28:34;102018.28;;;13.35;98.36
18504;BME280;9381;54.244;10.074;2023-10-08T07:33:36;102012.06;;;13.41;99.68
18504;BME280;9381;54.244;10.074;2023-10-08T07:38:36;102029.25;;;13.55;100.00
18504;BME280;9381;54.244;10.074;2023-10-08T07:43:37;102024.69;;;13.68;100.00
18504;BME280;9381;54.244;10.074;2023-10-08T07:48:37;102032.66;;;13.83;100.00
18504;BME280;9381;54.244;10.074;2023-10-08T07:53:43;102041.25;;;13.86;100.00
18504;BME280;9381;54.244;10.074;2023-10-08T07:58:43;102049.22;;;13.94;100.00
18504;BME280;9381;54.244;10.074;2023-10-08T08:03:43;102045.25;;;14.10;100.00
18504;BME280;9381;54.244;10.074;2023-10-08T08:08:46;102053.25;;;14.24;100.00
18504;BME280;9381;54.244;10.074;2023-10-08T08:13:46;102068.75;;;14.50;100.00
18504;BME280;9381;54.244;10.074;2023-10-08T08:18:47;102068.31;;;14.72;100.00
18504;BME280;9381;54.244;10.074;2023-10-08T08:23:49;102075.84;;;14.89;100.00
18504;BME280;9381;54.244;10.074;2023-10-08T08:28:50;102081.69;;;14.99;100.00
18504;BME280;9381;54.244;10.074;2023-10-08T08:33:52;102091.09;;;15.10;98.73
18504;BME280;9381;54.244;10.074;2023-10-08T08:38:53;102099.66;;;15.33;98.75
18504;BME280;9381;54.244;10.074;2023-10-08T08:43:54;102094.13;;;15.59;96.53
18504;BME280;9381;54.244;10.074;2023-10-08T08:49:02;102098.03;;;15.76;96.16
18504;BME280;9381;54.244;10.074;2023-10-08T08:54:05;102107.38;;;15.93;94.14
18504;BME280;9381;54.244;10.074;2023-10-08T08:59:14;102112.16;;;16.04;91.60
18504;BME280;9381;54.244;10.074;2023-10-08T09:04:15;102115.59;;;16.24;89.97
18504;BME280;9381;54.244;10.074;2023-10-08T09:09:16;102112.97;;;16.35;89.52
18504;BME280;9381;54.244;10.074;2023-10-08T09:14:24;102123.44;;;16.45;89.57
18504;BME280;9381;54.244;10.074;2023-10-08T09:19:29;102128.84;;;16.51;86.28
18504;BME280;9381;54.244;10.074;2023-10-08T09:24:37;102137.34;;;16.37;83.62
18504;BME280;9381;54.244;10.074;2023-10-08T09:29:38;102150.22;;;16.61;82.83
18504;BME280;9381;54.244;10.074;2023-10-08T09:34:42;102152.47;;;16.95;83.20
18504;BME280;9381;54.244;10.074;2023-10-08T09:39:44;102150.78;;;16.94;80.05
18504;BME280;9381;54.244;10.074;2023-10-08T09:44:46;102151.13;;;17.04;78.85
18504;BME280;9381;54.244;10.074;2023-10-08T09:49:56;102157.13;;;17.55;80.87
18504;BME280;9381;54.244;10.074;2023-10-08T09:55:08;102143.25;;;18.03;76.44
18504;BME280;9381;54.244;10.074;2023-10-08T10:00:10;102141.25;;;19.89;65.47
18504;BME280;9381;54.244;10.074;2023-10-08T10:05:20;102144.28;;;20.44;66.99
18504;BME280;9381;54.244;10.074;2023-10-08T10:10:32;102157.00;;;21.11;64.20
18504;BME280;9381;54.244;10.074;2023-10-08T10:15:36;102160.09;;;21.90;67.56
18504;BME280;9381;54.244;10.074;2023-10-08T10:20:45;102169.75;;;21.71;61.07
18504;BME280;9381;54.244;10.074;2023-10-08T10:25:46;102167.41;;;22.80;55.84
18504;BME280;9381;54.244;10.074;2023-10-08T10:30:48;102182.44;;;24.24;57.09
18504;BME280;9381;54.244;10.074;2023-10-08T10:35:51;102171.97;;;24.50;55.16
18504;BME280;9381;54.244;10.074;2023-10-08T10:40:52;102174.56;;;23.96;53.59
18504;BME280;9381;54.244;10.074;2023-10-08T10:46:01;102174.13;;;22.89;54.95
18504;BME280;9381;54.244;10.074;2023-10-08T10:51:20;102172.97;;;21.30;55.49
18504;BME280;9381;54.244;10.074;2023-10-08T10:56:23;102166.41;;;20.37;55.50
18504;BME280;9381;54.244;10.074;2023-10-08T11:01:29;102141.13;;;20.07;59.21
18504;BME280;9381;54.244;10.074;2023-10-08T11:06:30;102136.50;;;19.85;59.45
18504;BME280;9381;54.244;10.074;2023-10-08T11:11:33;102142.53;;;19.70;59.68
18504;BME280;9381;54.244;10.074;2023-10-08T11:16:36;102137.78;;;19.54;59.00
18504;BME280;9381;54.244;10.074;2023-10-08T11:21:53;102121.25;;;19.77;59.52
18504;BME280;9381;54.244;10.074;2023-10-08T11:26:56;102123.31;;;19.98;58.36
18504;BME280;9381;54.244;10.074;2023-10-08T11:32:15;102123.91;;;20.73;60.04
18504;BME280;9381;54.244;10.074;2023-10-08T11:37:28;102110.84;;;20.96;58.16
18504;BME280;9381;54.244;10.074;2023-10-08T11:42:28;102106.47;;;21.54;59.13
18504;BME280;9381;54.244;10.074;2023-10-08T11:47:31;102111.19;;;22.02;57.20
18504;BME280;9381;54.244;10.074;2023-10-08T11:52:36;102123.72;;;22.99;55.93
18504;BME280;9381;54.244;10.074;2023-10-08T11:57:41;102112.72;;;24.12;57.28
18504;BME280;9381;54.244;10.074;2023-10-08T12:02:48;102127.66;;;24.11;50.45
18504;BME280;9381;54.244;10.074;2023-10-08T12:07:51;102111.38;;;23.53;51.91
18504;BME280;9381;54.244;10.074;2023-10-08T12:12:52;102104.41;;;22.67;51.49
18504;BME280;9381;54.244;10.074;2023-10-08T12:17:53;102103.19;;;21.57;54.04
18504;BME280;9381;54.244;10.074;2023-10-08T12:23:08;102114.47;;;20.52;56.72
18504;BME280;9381;54.244;10.074;2023-10-08T12:28:10;102110.75;;;20.02;59.47
18504;BME280;9381;54.244;10.074;2023-10-08T12:33:12;102124.50;;;20.02;59.42
18504;BME280;9381;54.244;10.074;2023-10-08T12:38:16;102133.19;;;19.71;59.45
18504;BME280;9381;54.244;10.074;2023-10-08T12:43:21;102135.41;;;19.46;59.70
18504;BME280;9381;54.244;10.074;2023-10-08T12:53:28;102134.66;;;18.93;60.68
18504;BME280;9381;54.244;10.074;2023-10-08T12:58:35;102141.81;;;18.71;60.88
18504;BME280;9381;54.244;10.074;2023-10-08T13:03:41;102140.06;;;18.47;62.54
18504;BME280;9381;54.244;10.074;2023-10-08T13:08:42;102147.44;;;18.35;64.08
18504;BME280;9381;54.244;10.074;2023-10-08T13:13:42;102154.22;;;18.33;63.20
18504;BME280;9381;54.244;10.074;2023-10-08T13:18:44;102152.34;;;18.15;60.34
18504;BME280;9381;54.244;10.074;2023-10-08T13:23:45;102153.25;;;18.09;60.99
18504;BME280;9381;54.244;10.074;2023-10-08T13:28:46;102154.63;;;18.00;64.42
18504;BME280;9381;54.244;10.074;2023-10-08T13:33:47;102146.16;;;17.90;63.91
18504;BME280;9381;54.244;10.074;2023-10-08T13:38:52;102151.34;;;17.81;64.13
18504;BME280;9381;54.244;10.074;2023-10-08T13:43:52;102159.72;;;17.68;64.55
18504;BME280;9381;54.244;10.074;2023-10-08T13:48:52;102158.88;;;17.67;65.23
18504;BME280;9381;54.244;10.074;2023-10-08T13:53:55;102148.47;;;17.58;66.31
18504;BME280;9381;54.244;10.074;2023-10-08T13:59:06;102155.81;;;17.39;65.05
18504;BME280;9381;54.244;10.074;2023-10-08T14:04:12;102153.31;;;17.38;66.41
18504;BME280;9381;54.244;10.074;2023-10-08T14:09:21;102147.50;;;17.28;67.26
18504;BME280;9381;54.244;10.074;2023-10-08T14:14:36;102150.50;;;17.20;70.67
18504;BME280;9381;54.244;10.074;2023-10-08T14:19:43;102149.88;;;17.00;72.27
18504;BME280;9381;54.244;10.074;2023-10-08T14:24:51;102145.34;;;16.87;74.10
18504;BME280;9381;54.244;10.074;2023-10-08T14:30:01;102149.50;;;16.72;74.81
18504;BME280;9381;54.244;10.074;2023-10-08T14:35:05;102134.22;;;16.64;73.80
18504;BME280;9381;54.244;10.074;2023-10-08T14:40:24;102131.97;;;16.55;75.21
18504;BME280;9381;54.244;10.074;2023-10-08T14:45:43;102125.91;;;16.53;76.73
18504;BME280;9381;54.244;10.074;2023-10-08T14:50:47;102120.44;;;16.53;77.63
18504;BME280;9381;54.244;10.074;2023-10-08T14:55:47;102116.91;;;16.46;78.41
18504;BME280;9381;54.244;10.074;2023-10-08T15:00:49;102121.38;;;16.40;79.07
18504;BME280;9381;54.244;10.074;2023-10-08T15:05:49;102113.25;;;16.27;78.74
18504;BME280;9381;54.244;10.074;2023-10-08T15:10:50;102098.31;;;16.30;78.66
18504;BME280;9381;54.244;10.074;2023-10-08T15:15:50;102099.66;;;16.21;79.78
18504;BME280;9381;54.244;10.074;2023-10-08T15:20:51;102091.28;;;16.16;80.62
18504;BME280;9381;54.244;10.074;2023-10-08T15:25:53;102079.13;;;16.12;81.83
18504;BME280;9381;54.244;10.074;2023-10-08T15:30:54;102075.59;;;16.05;82.18
18504;BME280;9381;54.244;10.074;2023-10-08T15:35:54;102086.28;;;16.06;82.78
18504;BME280;9381;54.244;10.074;2023-10-08T15:40:54;102083.84;;;15.98;84.19
18504;BME280;9381;54.244;10.074;2023-10-08T15:45:55;102073.34;;;15.95;83.92
18504;BME280;9381;54.244;10.074;2023-10-08T15:50:55;102067.31;;;15.87;84.66
18504;BME280;9381;54.244;10.074;2023-10-08T15:55:56;102060.00;;;15.81;85.31
18504;BME280;9381;54.244;10.074;2023-10-08T16:00:56;102060.44;;;15.78;86.03
18504;BME280;9381;54.244;10.074;2023-10-08T16:05:57;102053.72;;;15.74;85.74
18504;BME280;9381;54.244;10.074;2023-10-08T16:10:57;102037.00;;;15.70;86.47
18504;BME280;9381;54.244;10.074;2023-10-08T16:15:57;102059.72;;;15.58;87.54
18504;BME280;9381;54.244;10.074;2023-10-08T16:20:59;102059.09;;;15.49;88.17
18504;BME280;9381;54.244;10.074;2023-10-08T16:26:00;102060.16;;;15.48;88.30
18504;BME280;9381;54.244;10.074;2023-10-08T16:31:00;102056.91;;;15.33;88.76
18504;BME280;9381;54.244;10.074;2023-10-08T16:36:06;102048.91;;;15.32;89.33
18504;BME280;9381;54.244;10.074;2023-10-08T16:41:09;102048.50;;;15.22;90.24
18504;BME280;9381;54.244;10.074;2023-10-08T16:46:12;102037.59;;;15.22;90.45
18504;BME280;9381;54.244;10.074;2023-10-08T16:51:12;102045.81;;;15.15;90.87
18504;BME280;9381;54.244;10.074;2023-10-08T16:56:14;102040.78;;;15.06;91.07
18504;BME280;9381;54.244;10.074;2023-10-08T17:01:15;102029.91;;;15.06;90.39
18504;BME280;9381;54.244;10.074;2023-10-08T17:06:15;102014.59;;;15.05;90.45
18504;BME280;9381;54.244;10.074;2023-10-08T17:11:15;102015.03;;;15.02;90.32
18504;BME280;9381;54.244;10.074;2023-10-08T17:16:16;102003.09;;;15.03;89.38
18504;BME280;9381;54.244;10.074;2023-10-08T17:21:17;101999.34;;;14.97;87.74
18504;BME280;9381;54.244;10.074;2023-10-08T17:26:18;102002.88;;;14.98;87.44
18504;BME280;9381;54.244;10.074;2023-10-08T17:31:19;102013.59;;;14.93;86.39
18504;BME280;9381;54.244;10.074;2023-10-08T17:36:19;102007.31;;;14.92;85.35
18504;BME280;9381;54.244;10.074;2023-10-08T17:41:19;101993.28;;;14.82;84.74
18504;BME280;9381;54.244;10.074;2023-10-08T17:46:21;101981.53;;;14.82;84.87
18504;BME280;9381;54.244;10.074;2023-10-08T17:51:26;101972.19;;;14.65;84.54
18504;BME280;9381;54.244;10.074;2023-10-08T17:56:26;101961.03;;;14.73;84.84
18504;BME280;9381;54.244;10.074;2023-10-08T18:01:26;101941.78;;;14.68;84.97
18504;BME280;9381;54.244;10.074;2023-10-08T18:06:27;101931.34;;;14.65;85.37
18504;BME280;9381;54.244;10.074;2023-10-08T18:11:27;101937.59;;;14.66;85.42
18504;BME280;9381;54.244;10.074;2023-10-08T18:16:29;101926.31;;;14.56;85.27
18504;BME280;9381;54.244;10.074;2023-10-08T18:21:31;101916.34;;;14.30;86.66
18504;BME280;9381;54.244;10.074;2023-10-08T18:26:33;101914.47;;;14.24;87.08
18504;BME280;9381;54.244;10.074;2023-10-08T18:31:33;101927.63;;;14.27;86.74
18504;BME280;9381;54.244;10.074;2023-10-08T18:36:36;101929.31;;;14.15;87.10
18504;BME280;9381;54.244;10.074;2023-10-08T18:41:36;101949.22;;;14.22;86.98
18504;BME280;9381;54.244;10.074;2023-10-08T18:46:37;101947.31;;;14.36;87.65
18504;BME280;9381;54.244;10.074;2023-10-08T18:51:37;101946.69;;;14.34;89.11
18504;BME280;9381;54.244;10.074;2023-10-08T18:56:41;101934.53;;;14.36;89.52
18504;BME280;9381;54.244;10.074;2023-10-08T19:01:41;101935.00;;;14.20;88.99
18504;BME280;9381;54.244;10.074;2023-10-08T19:06:43;101931.00;;;14.23;89.14
18504;BME280;9381;54.244;10.074;2023-10-08T19:11:44;101911.09;;;14.09;90.45
18504;BME280;9381;54.244;10.074;2023-10-08T19:16:45;101898.34;;;14.03;90.56
18504;BME280;9381;54.244;10.074;2023-10-08T19:21:49;101897.91;;;14.06;89.91
18504;BME280;9381;54.244;10.074;2023-10-08T19:26:49;101876.59;;;14.03;90.04
18504;BME280;9381;54.244;10.074;2023-10-08T19:31:49;101885.78;;;14.09;89.44
18504;BME280;9381;54.244;10.074;2023-10-08T19:36:50;101892.03;;;14.09;89.26
18504;BME280;9381;54.244;10.074;2023-10-08T19:41:50;101881.59;;;14.06;90.02
18504;BME280;9381;54.244;10.074;2023-10-08T19:46:50;101905.47;;;14.17;89.33
18504;BME280;9381;54.244;10.074;2023-10-08T19:51:51;101896.44;;;14.10;90.14
18504;BME280;9381;54.244;10.074;2023-10-08T19:56:52;101902.53;;;14.19;89.61
18504;BME280;9381;54.244;10.074;2023-10-08T20:01:54;101890.81;;;14.18;90.15
18504;BME280;9381;54.244;10.074;2023-10-08T20:06:54;101887.69;;;14.21;90.40
18504;BME280;9381;54.244;10.074;2023-10-08T20:11:55;101876.38;;;14.11;90.00
18504;BME280;9381;54.244;10.074;2023-10-08T20:16:55;101861.06;;;14.10;89.38
18504;BME280;9381;54.244;10.074;2023-10-08T20:21:56;101848.94;;;14.06;89.20
18504;BME280;9381;54.244;10.074;2023-10-08T20:26:56;101841.41;;;14.08;89.53
18504;BME280;9381;54.244;10.074;2023-10-08T20:31:57;101839.72;;;14.07;89.55
18504;BME280;9381;54.244;10.074;2023-10-08T20:37:00;101830.34;;;14.03;89.18
18504;BME280;9381;54.244;10.074;2023-10-08T20:42:00;101834.75;;;13.98;89.46
18504;BME280;9381;54.244;10.074;2023-10-08T20:47:00;101817.56;;;14.04;89.97
18504;BME280;9381;54.244;10.074;2023-10-08T20:52:03;101825.09;;;14.08;89.63
18504;BME280;9381;54.244;10.074;2023-10-08T20:57:03;101819.47;;;14.03;90.13
18504;BME280;9381;54.244;10.074;2023-10-08T21:02:04;101818.19;;;13.99;90.10
18504;BME280;9381;54.244;10.074;2023-10-08T21:07:10;101807.56;;;13.98;90.70
18504;BME280;9381;54.244;10.074;2023-10-08T21:12:10;101812.97;;;13.91;90.91
18504;BME280;9381;54.244;10.074;2023-10-08T21:17:10;101826.34;;;13.99;91.22
18504;BME280;9381;54.244;10.074;2023-10-08T21:22:11;101812.56;;;14.01;92.13
18504;BME280;9381;54.244;10.074;2023-10-08T21:27:12;101833.06;;;14.03;92.29
18504;BME280;9381;54.244;10.074;2023-10-08T21:32:13;101823.41;;;14.07;92.59
18504;BME280;9381;54.244;10.074;2023-10-08T21:37:13;101817.34;;;14.05;91.90
18504;BME280;9381;54.244;10.074;2023-10-08T21:42:13;101812.97;;;13.91;93.12
18504;BME280;9381;54.244;10.074;2023-10-08T21:47:13;101799.41;;;13.78;94.95
18504;BME280;9381;54.244;10.074;2023-10-08T21:52:14;101775.81;;;13.59;97.36
18504;BME280;9381;54.244;10.074;2023-10-08T21:57:14;101771.00;;;13.61;96.20
18504;BME280;9381;54.244;10.074;2023-10-08T22:02:18;101786.03;;;13.51;98.13
18504;BME280;9381;54.244;10.074;2023-10-08T22:07:19;101763.25;;;13.65;97.27
18504;BME280;9381;54.244;10.074;2023-10-08T22:12:19;101766.19;;;13.63;98.03
18504;BME280;9381;54.244;10.074;2023-10-08T22:17:20;101755.72;;;13.60;98.04
18504;BME280;9381;54.244;10.074;2023-10-08T22:22:26;101751.34;;;13.59;98.63
18504;BME280;9381;54.244;10.074;2023-10-08T22:27:26;101742.78;;;13.56;98.52
18504;BME280;9381;54.244;10.074;2023-10-08T22:32:33;101741.13;;;13.48;99.26
18504;BME280;9381;54.244;10.074;2023-10-08T22:37:33;101751.78;;;13.56;99.02
18504;BME280;9381;54.244;10.074;2023-10-08T22:42:54;101745.69;;;13.54;99.69
18504;BME280;9381;54.244;10.074;2023-10-08T22:47:57;101728.56;;;13.41;100.00
18504;BME280;9381;54.244;10.074;2023-10-08T22:53:05;101723.16;;;13.47;100.00
18504;BME280;9381;54.244;10.074;2023-10-08T22:58:06;101702.88;;;13.30;100.00
18504;BME280;9381;54.244;10.074;2023-10-08T23:03:08;101696.19;;;13.39;100.00
18504;BME280;9381;54.244;10.074;2023-10-08T23:08:13;101693.03;;;13.42;99.92
18504;BME280;9381;54.244;10.074;2023-10-08T23:13:14;101676.28;;;13.45;99.86
18504;BME280;9381;54.244;10.074;2023-10-08T23:18:16;101677.75;;;13.48;98.76
18504;BME280;9381;54.244;10.074;2023-10-08T23:23:23;101658.72;;;13.54;99.39
18504;BME280;9381;54.244;10.074;2023-10-08T23:28:23;101643.06;;;13.43;99.27
18504;BME280;9381;54.244;10.074;2023-10-08T23:33:27;101636.41;;;13.39;99.43
18504;BME280;9381;54.244;10.074;2023-10-08T23:38:37;101618.25;;;13.27;97.93
18504;BME280;9381;54.244;10.074;2023-10-08T23:43:45;101607.78;;;13.30;97.64
18504;BME280;9381;54.244;10.074;2023-10-08T23:48:56;101598.63;;;13.25;97.33
18504;BME280;9381;54.244;10.074;2023-10-08T23:54:05;101591.72;;;13.22;97.33
18504;BME280;9381;54.244;10.074;2023-10-08T23:59:16;101573.13;;;13.19;98.80
